Time;durP1;ratioP1;P1;durP2;ratioP2;P2;SDS_P1;SDS_P2;PMS_P1;PMS_P2;Temp;Humidity;BMP_temperature;BMP_pressure;BME280_temperature;BME280_humidity;BME280_pressure;Samples;Min_cycle;Max_cycle;Signal;HPM_P1;HPM_P2
2024/01/06 00:04:21;;;;;;;2.67;0.97;;;;;;;17.24;57.54;100115.56;10537184;28;20274;-48
2024/01/06 00:09:21;;;;;;;2.70;1.00;;;;;;;17.25;57.68;100109.13;10536373;28;20286;-50
2024/01/06 00:14:21;;;;;;;2.20;1.10;;;;;;;17.24;58.06;100124.41;10536501;28;20302;-47
2024/01/06 00:19:21;;;;;;;1.88;1.20;;;;;;;17.27;56.39;100131.03;10536295;28;20270;-47
2024/01/06 00:24:22;;;;;;;2.03;1.17;;;;;;;17.27;57.84;100132.91;10536613;28;20039;-45
2024/01/06 00:29:22;;;;;;;3.15;1.48;;;;;;;17.29;56.39;100141.47;10535656;28;20298;-51
2024/01/06 00:34:23;;;;;;;2.35;1.35;;;;;;;17.29;57.72;100144.94;10535928;28;20516;-46
2024/01/06 00:39:23;;;;;;;2.10;1.10;;;;;;;17.32;57.62;100151.59;10534496;28;20020;-47
2024/01/06 00:44:23;;;;;;;1.88;1.08;;;;;;;17.31;57.20;100169.56;10535450;28;20274;-50
2024/01/06 00:49:24;;;;;;;2.30;1.37;;;;;;;17.31;57.09;100166.88;10534733;28;20017;-46
2024/01/06 00:54:24;;;;;;;2.10;1.20;;;;;;;17.31;57.22;100160.72;10535336;28;20278;-45
2024/01/06 00:59:25;;;;;;;1.83;1.13;;;;;;;17.30;57.25;100154.56;10534648;28;20620;-48
2024/01/06 01:04:25;;;;;;;1.88;1.05;;;;;;;17.30;56.68;100164.50;10534832;28;20281;-47
2024/01/06 01:09:26;;;;;;;1.90;1.10;;;;;;;17.28;57.54;100169.34;10521895;28;20452;-47
2024/01/06 01:14:26;;;;;;;2.27;1.13;;;;;;;17.28;57.17;100180.06;10526036;28;20364;-48
2024/01/06 01:19:26;;;;;;;1.67;0.90;;;;;;;17.28;57.11;100177.38;10533813;28;20327;-46
2024/01/06 01:24:27;;;;;;;1.90;0.82;;;;;;;17.29;56.49;100182.47;10534290;28;20046;-50
2024/01/06 01:29:27;;;;;;;3.00;1.40;;;;;;;17.34;57.23;100186.91;10533427;28;20593;-47
2024/01/06 01:34:27;;;;;;;2.07;1.10;;;;;;;17.32;56.50;100194.47;10533782;28;20281;-46
2024/01/06 01:39:28;;;;;;;1.40;0.88;;;;;;;17.32;56.84;100200.63;10533443;28;20602;-47
2024/01/06 01:44:28;;;;;;;2.07;1.47;;;;;;;17.32;56.94;100218.56;10533655;28;20046;-47
2024/01/06 01:49:28;;;;;;;1.17;0.93;;;;;;;17.32;55.88;100222.06;10532628;28;20286;-45
2024/01/06 01:54:29;;;;;;;1.63;1.13;;;;;;;17.28;56.31;100223.72;10514954;28;20278;-45
2024/01/06 01:59:29;;;;;;;2.22;1.10;;;;;;;17.31;56.14;100235.75;10532704;28;21015;-48
2024/01/06 02:04:29;;;;;;;1.98;0.95;;;;;;;17.30;57.23;100255.59;10533065;28;20516;-49
2024/01/06 02:09:30;;;;;;;1.55;0.90;;;;;;;17.33;56.38;100255.00;10519740;28;20033;-49
2024/01/06 02:14:32;;;;;;;2.70;0.90;;;;;;;17.33;55.88;100257.69;10486782;28;20056;-50
2024/01/06 02:19:32;;;;;;;1.80;1.10;;;;;;;17.31;55.82;100262.53;10532465;28;20294;-48
2024/01/06 02:24:33;;;;;;;1.87;1.20;;;;;;;17.33;56.95;100271.88;10532741;28;20115;-45
2024/01/06 02:29:33;;;;;;;1.50;0.83;;;;;;;17.33;56.45;100274.56;10531889;28;20393;-47
2024/01/06 02:34:34;;;;;;;1.93;1.30;;;;;;;17.34;55.49;100275.34;10514410;28;20309;-49
2024/01/06 02:39:34;;;;;;;1.88;1.38;;;;;;;17.30;56.58;100296.59;10531958;28;20278;-48
2024/01/06 02:44:35;;;;;;;1.30;0.90;;;;;;;17.34;56.48;100302.13;10532350;28;20026;-46
2024/01/06 02:49:35;;;;;;;2.33;1.37;;;;;;;17.32;55.73;100299.75;10531445;28;20719;-45
2024/01/06 02:54:35;;;;;;;2.10;1.20;;;;;;;17.31;56.25;100308.09;10531964;28;20281;-45
2024/01/06 02:59:36;;;;;;;2.33;1.40;;;;;;;17.33;56.34;100316.63;10531520;28;20259;-50
2024/01/06 03:04:36;;;;;;;2.33;1.30;;;;;;;17.29;55.44;100318.31;10537677;28;20955;-50
2024/01/06 03:09:38;;;;;;;1.43;1.00;;;;;;;17.34;55.90;100323.56;10525226;28;20320;-47
2024/01/06 03:14:38;;;;;;;3.50;1.17;;;;;;;17.32;56.37;100323.88;10532938;28;20282;-46
2024/01/06 03:19:39;;;;;;;3.07;0.93;;;;;;;17.32;55.63;100326.56;10539041;28;20020;-46
2024/01/06 03:24:40;;;;;;;1.80;1.05;;;;;;;17.32;55.89;100345.31;10538449;28;20051;-47
2024/01/06 03:29:40;;;;;;;1.55;1.00;;;;;;;17.31;55.64;100343.72;10538274;28;20615;-46
2024/01/06 03:34:41;;;;;;;1.73;0.90;;;;;;;17.33;55.52;100346.13;10538029;28;20341;-47
2024/01/06 03:39:41;;;;;;;2.00;0.90;;;;;;;17.32;56.90;100349.88;10520051;28;20020;-46
2024/01/06 03:44:42;;;;;;;1.83;1.03;;;;;;;17.33;56.30;100362.19;10537503;28;20077;-45
2024/01/06 03:49:42;;;;;;;2.60;1.13;;;;;;;17.31;56.06;100362.50;10537827;28;20335;-47
2024/01/06 03:54:42;;;;;;;1.50;0.87;;;;;;;17.31;55.80;100369.72;10537017;28;20031;-45
2024/01/06 03:59:43;;;;;;;1.97;1.27;;;;;;;17.30;55.65;100371.63;10537372;28;20261;-46
2024/01/06 04:04:43;;;;;;;1.60;0.80;;;;;;;17.30;56.60;100382.34;10536902;28;20737;-47
2024/01/06 04:09:43;;;;;;;3.20;1.20;;;;;;;17.31;55.45;100383.13;10521995;28;20343;-47
2024/01/06 04:14:44;;;;;;;1.53;1.10;;;;;;;17.31;56.29;100391.16;10529899;28;20352;-48
2024/01/06 04:19:44;;;;;;;2.03;1.10;;;;;;;17.32;55.59;100382.84;10536377;28;20278;-48
2024/01/06 04:24:44;;;;;;;1.52;0.95;;;;;;;17.30;56.72;100392.25;10536242;28;20360;-47
2024/01/06 04:29:45;;;;;;;2.80;1.30;;;;;;;17.29;55.99;100399.50;10536102;28;20047;-47
2024/01/06 04:34:45;;;;;;;2.80;1.43;;;;;;;17.29;55.14;100412.91;10535429;28;20335;-50
2024/01/06 04:39:45;;;;;;;2.70;1.60;;;;;;;17.28;55.31;100415.84;10535776;28;20269;-47
2024/01/06 04:44:46;;;;;;;2.70;1.60;;;;;;;17.31;55.50;100416.09;10535275;28;20752;-46
2024/01/06 04:49:46;;;;;;;3.67;1.80;;;;;;;17.28;56.36;100416.66;10535322;28;20290;-47
2024/01/06 04:54:46;;;;;;;2.37;1.53;;;;;;;17.30;55.43;100416.38;10518857;28;20282;-48
2024/01/06 04:59:46;;;;;;;2.30;1.00;;;;;;;17.29;55.93;100414.78;10508711;28;20274;-50
2024/01/06 05:04:47;;;;;;;2.10;1.13;;;;;;;17.30;55.98;100419.06;10508828;28;20282;-49
2024/01/06 05:09:47;;;;;;;2.30;1.47;;;;;;;17.29;56.24;100422.84;10512021;28;20289;-49
2024/01/06 05:14:47;;;;;;;1.17;0.90;;;;;;;17.29;55.67;100430.88;10532323;28;20282;-52
2024/01/06 05:19:48;;;;;;;2.70;1.23;;;;;;;17.31;56.40;100450.91;10518090;28;20278;-48
2024/01/06 05:24:48;;;;;;;2.07;1.37;;;;;;;17.29;55.92;100455.00;10527194;28;20077;-49
2024/01/06 05:29:49;;;;;;;1.98;1.10;;;;;;;17.29;54.90;100458.47;10521385;28;20344;-49
2024/01/06 05:34:49;;;;;;;1.25;0.70;;;;;;;17.30;56.48;100473.44;10506055;28;20387;-47
2024/01/06 05:39:49;;;;;;;1.40;0.65;;;;;;;17.30;55.01;100467.28;10491365;28;20019;-48
2024/01/06 05:44:50;;;;;;;1.55;0.98;;;;;;;17.30;56.38;100476.13;10515235;28;20038;-48
2024/01/06 05:49:50;;;;;;;1.65;1.02;;;;;;;17.28;56.18;100472.13;10520989;28;20031;-50
2024/01/06 05:54:51;;;;;;;1.83;1.17;;;;;;;17.30;55.75;100486.84;10506146;28;20025;-47
2024/01/06 05:59:51;;;;;;;1.37;1.00;;;;;;;17.30;56.12;100499.44;10532879;28;20680;-50
2024/01/06 06:04:52;;;;;;;1.63;0.70;;;;;;;17.27;55.39;100508.84;10516965;28;20338;-48
2024/01/06 06:09:53;;;;;;;2.17;1.08;;;;;;;17.29;55.42;100517.41;10532850;28;20298;-49
2024/01/06 06:14:55;;;;;;;7.30;1.77;;;;;;;17.37;57.08;100522.09;10532040;28;20040;-46
2024/01/06 06:19:57;;;;;;;5.72;1.38;;;;;;;17.35;57.38;100542.25;10531334;28;20016;-47
2024/01/06 06:24:58;;;;;;;2.85;1.33;;;;;;;17.44;56.89;100545.84;10531372;28;20028;-49
2024/01/06 06:29:58;;;;;;;2.67;1.67;;;;;;;17.44;56.49;100551.22;10531292;28;20417;-47
2024/01/06 06:34:58;;;;;;;3.30;1.60;;;;;;;17.40;55.83;100568.94;10508073;28;20032;-46
2024/01/06 06:39:59;;;;;;;9.37;1.50;;;;;;;17.41;56.12;100570.56;10529169;28;20281;-47
2024/01/06 06:44:59;;;;;;;5.93;1.57;;;;;;;17.36;57.25;100578.66;10519075;28;20281;-47
2024/01/06 06:50:00;;;;;;;3.57;1.23;;;;;;;17.33;56.23;100588.09;10509791;28;20292;-47
2024/01/06 06:55:00;;;;;;;5.57;1.17;;;;;;;17.36;57.00;100600.91;10525843;28;20745;-47
2024/01/06 07:00:00;;;;;;;5.93;1.60;;;;;;;17.35;56.54;100598.50;10520906;28;20019;-49
2024/01/06 07:05:01;;;;;;;5.22;1.77;;;;;;;17.39;56.00;100603.00;10511771;28;20349;-49
2024/01/06 07:10:03;;;;;;;5.40;1.77;;;;;;;17.31;57.91;100618.94;10496818;28;20032;-50
2024/01/06 07:15:04;;;;;;;10.43;2.15;;;;;;;17.35;58.21;100625.31;10473548;28;20102;-49
2024/01/06 07:20:06;;;;;;;9.50;2.00;;;;;;;17.36;58.37;100640.31;10496253;28;20062;-48
2024/01/06 07:25:07;;;;;;;15.00;1.85;;;;;;;17.31;58.55;100643.88;10471197;28;20033;-49
2024/01/06 07:30:08;;;;;;;10.20;2.22;;;;;;;17.28;58.18;100655.13;10478241;28;20033;-47
2024/01/06 07:35:08;;;;;;;6.35;1.70;;;;;;;17.28;57.74;100660.50;10478282;28;20041;-47
2024/01/06 07:40:09;;;;;;;9.03;1.80;;;;;;;17.24;57.85;100668.31;10496310;28;20487;-51
2024/01/06 07:45:10;;;;;;;3.45;1.55;;;;;;;17.19;56.95;100671.06;10495514;28;20275;-50
2024/01/06 07:50:10;;;;;;;7.88;1.65;;;;;;;17.22;57.29;100675.06;10493476;28;20378;-50
2024/01/06 07:55:10;;;;;;;13.00;1.93;;;;;;;17.17;57.62;100685.84;10491083;28;20120;-49
2024/01/06 08:00:14;;;;;;;10.73;1.67;;;;;;;17.16;57.82;100695.75;10484551;28;20448;-47
2024/01/06 08:05:14;;;;;;;6.38;2.00;;;;;;;17.14;57.23;100687.19;10491316;28;20297;-48
2024/01/06 08:10:15;;;;;;;7.37;1.43;;;;;;;17.15;56.41;100704.06;10495814;28;20372;-50
2024/01/06 08:15:15;;;;;;;7.75;2.78;;;;;;;17.14;56.17;100719.34;10536984;28;20276;-52
2024/01/06 08:20:15;;;;;;;12.43;3.57;;;;;;;17.15;57.15;100734.34;10536288;28;20451;-48
2024/01/06 08:25:17;;;;;;;9.17;3.27;;;;;;;17.14;56.45;100738.09;10536035;28;20277;-51
2024/01/06 08:30:17;;;;;;;8.50;3.22;;;;;;;17.14;56.78;100746.13;10536163;28;20281;-51
2024/01/06 08:35:19;;;;;;;7.40;3.10;;;;;;;17.15;56.28;100757.66;10535441;28;20027;-48
2024/01/06 08:40:19;;;;;;;6.07;2.00;;;;;;;17.17;56.71;100763.56;10535970;28;20644;-49
2024/01/06 08:45:20;;;;;;;6.87;2.50;;;;;;;17.12;55.74;100769.75;10535191;28;20028;-49
2024/01/06 08:50:20;;;;;;;5.72;2.97;;;;;;;17.11;56.34;100776.19;10535404;28;20278;-50
2024/01/06 08:55:20;;;;;;;8.02;2.50;;;;;;;17.10;55.23;100788.00;10534926;28;20110;-49
2024/01/06 09:00:21;;;;;;;4.90;2.58;;;;;;;17.13;56.32;100797.34;10534282;28;20016;-50
2024/01/06 09:05:21;;;;;;;4.68;2.40;;;;;;;17.10;54.96;100798.69;10534437;28;20032;-51
2024/01/06 09:10:21;;;;;;;5.30;3.20;;;;;;;17.11;55.00;100800.31;10514373;28;20464;-49
2024/01/06 09:15:22;;;;;;;4.63;2.67;;;;;;;17.11;56.26;100808.34;10533537;28;20301;-51
2024/01/06 09:20:23;;;;;;;4.03;2.28;;;;;;;17.10;55.74;100812.09;10534208;28;20332;-48
2024/01/06 09:25:24;;;;;;;5.65;2.30;;;;;;;17.11;54.71;100821.72;10533545;28;20027;-50
2024/01/06 09:30:25;;;;;;;12.57;2.08;;;;;;;17.09;55.68;100831.94;10533596;28;20077;-49
2024/01/06 09:35:26;;;;;;;10.57;2.13;;;;;;;17.02;55.71;100844.84;10528540;28;20423;-48
2024/01/06 09:40:26;;;;;;;7.07;2.30;;;;;;;17.09;57.00;100853.38;10533312;28;20028;-47
2024/01/06 09:45:27;;;;;;;11.40;2.45;;;;;;;17.11;56.76;100855.75;10533044;28;20732;-49
2024/01/06 09:50:27;;;;;;;12.20;2.83;;;;;;;17.09;57.19;100866.75;10515223;28;20020;-46
2024/01/06 09:55:28;;;;;;;14.20;2.30;;;;;;;17.09;57.32;100872.13;10532905;28;20357;-46
2024/01/06 10:00:29;;;;;;;13.93;2.78;;;;;;;17.09;58.25;100882.03;10533129;28;20036;-47
2024/01/06 10:05:30;;;;;;;12.70;2.60;;;;;;;17.05;57.71;100887.16;10514098;28;20035;-47
2024/01/06 10:10:34;;;;;;;10.43;2.50;;;;;;;16.99;58.06;100884.81;10527346;28;20342;-48
2024/01/06 10:15:36;;;;;;;8.93;2.72;;;;;;;16.97;56.84;100889.66;10541087;28;20024;-48
2024/01/06 10:20:36;;;;;;;16.15;3.33;;;;;;;16.95;57.96;100911.34;10541494;28;20459;-47
2024/01/06 10:25:37;;;;;;;15.85;4.15;;;;;;;16.95;57.55;100897.97;10540928;28;20034;-49
2024/01/06 10:30:37;;;;;;;21.25;4.47;;;;;;;16.94;58.84;100909.75;10541239;28;20030;-48
2024/01/06 10:35:39;;;;;;;8.63;2.72;;;;;;;16.98;57.29;100915.34;10511729;28;20029;-47
2024/01/06 10:40:39;;;;;;;8.23;3.15;;;;;;;16.97;56.78;100924.47;10513032;28;20038;-48
2024/01/06 10:45:39;;;;;;;7.18;3.20;;;;;;;16.91;58.24;100921.81;10534575;28;20020;-49
2024/01/06 10:50:40;;;;;;;9.77;2.53;;;;;;;16.96;57.10;100934.38;10540169;28;20622;-51
2024/01/06 10:55:41;;;;;;;6.43;2.70;;;;;;;16.95;57.39;100932.78;10518924;28;20278;-48
2024/01/06 11:00:41;;;;;;;6.60;2.00;;;;;;;16.97;56.78;100929.81;10521135;28;20110;-48
2024/01/06 11:05:43;;;;;;;7.77;2.10;;;;;;;16.97;56.62;100932.50;10539299;28;20032;-49
2024/01/06 11:10:43;;;;;;;8.90;2.20;;;;;;;17.01;56.67;100933.53;10518977;28;20269;-53
2024/01/06 11:15:48;;;;;;;5.65;2.58;;;;;;;17.00;56.51;100948.00;10531459;28;20020;-48
2024/01/06 11:21:14;;;;;;;8.85;2.38;;;;;;;16.96;56.29;100947.78;10516564;28;20024;-48
2024/01/06 11:26:14;;;;;;;4.78;2.38;;;;;;;16.98;57.36;100953.66;10537387;28;20031;-47
2024/01/06 11:31:15;;;;;;;5.75;1.92;;;;;;;17.00;55.83;100953.38;10534970;28;20032;-48
2024/01/06 11:36:16;;;;;;;6.47;1.90;;;;;;;16.98;55.85;100960.88;10538091;28;20028;-48
2024/01/06 11:41:48;;;;;;;5.07;2.10;;;;;;;17.00;56.04;100959.53;10538168;28;20464;-47
2024/01/06 11:46:51;;;;;;;8.13;2.90;;;;;;;16.99;56.04;100955.25;10537420;28;20496;-49
2024/01/06 11:51:52;;;;;;;5.82;2.63;;;;;;;16.97;55.37;100953.94;10519948;28;20031;-48
2024/01/06 11:56:53;;;;;;;7.32;3.60;;;;;;;17.00;55.88;100966.75;10519231;28;20024;-48
2024/01/06 12:01:54;;;;;;;7.03;4.53;;;;;;;17.00;55.24;100964.09;10537126;28;20058;-48
2024/01/06 12:07:05;;;;;;;9.48;4.03;;;;;;;17.04;56.70;100955.19;10536898;28;20024;-49
2024/01/06 12:12:06;;;;;;;4.97;1.98;;;;;;;17.04;55.97;100963.22;10536616;28;20701;-49
2024/01/06 12:17:09;;;;;;;5.25;2.72;;;;;;;17.00;56.48;100964.88;10536014;28;20613;-48
2024/01/06 12:22:13;;;;;;;6.97;3.20;;;;;;;17.03;57.22;100969.66;10513533;28;20474;-48
2024/01/06 12:27:13;;;;;;;7.70;2.75;;;;;;;17.02;56.61;100961.91;10523288;28;20027;-48
2024/01/06 12:32:13;;;;;;;3.83;2.07;;;;;;;17.04;55.38;100970.47;10512880;28;20028;-47
2024/01/06 12:37:14;;;;;;;9.13;3.23;;;;;;;17.11;56.93;100969.09;10532757;28;20254;-48
2024/01/06 12:42:17;;;;;;;8.73;2.88;;;;;;;17.16;57.74;100979.75;10535548;28;20737;-50
2024/01/06 12:47:18;;;;;;;6.47;2.72;;;;;;;17.20;57.62;100978.13;10534789;28;20116;-48
2024/01/06 12:52:18;;;;;;;8.85;2.75;;;;;;;17.22;57.28;100975.97;10517336;28;20051;-50
2024/01/06 12:57:18;;;;;;;8.37;3.10;;;;;;;17.22;57.31;100977.84;10534821;28;20514;-49
2024/01/06 13:02:20;;;;;;;10.70;3.10;;;;;;;17.16;57.18;100971.72;10534726;28;20278;-47
2024/01/06 13:07:22;;;;;;;7.28;2.88;;;;;;;17.11;56.95;100979.00;10533823;28;20297;-48
2024/01/06 13:12:23;;;;;;;9.00;2.58;;;;;;;17.07;57.81;100981.44;10496172;28;20554;-47
2024/01/06 13:17:23;;;;;;;9.18;4.00;;;;;;;17.11;61.54;100987.03;10534136;28;20032;-49
2024/01/06 13:22:25;;;;;;;6.83;3.30;;;;;;;17.24;60.46;100989.88;10533541;28;20024;-49
2024/01/06 13:27:29;;;;;;;7.57;3.97;;;;;;;17.28;58.93;100994.69;10533785;28;20652;-49
2024/01/06 13:32:29;;;;;;;6.57;2.47;;;;;;;17.22;58.83;100999.28;10529476;28;20039;-48
2024/01/06 13:37:31;;;;;;;4.37;3.20;;;;;;;17.20;57.63;101004.94;10532965;28;20463;-47
2024/01/06 13:42:31;;;;;;;7.97;3.13;;;;;;;17.21;57.41;101008.41;10532486;28;20305;-50
2024/01/06 13:47:31;;;;;;;7.67;3.23;;;;;;;17.11;56.92;101011.97;10532570;28;20508;-50
2024/01/06 13:52:32;;;;;;;9.25;3.20;;;;;;;17.13;57.81;101019.72;10531705;28;20307;-49
2024/01/06 13:57:32;;;;;;;5.88;3.22;;;;;;;17.08;56.25;101014.41;10529772;28;20027;-47
2024/01/06 14:02:32;;;;;;;6.37;3.67;;;;;;;17.07;55.90;101016.28;10531453;28;20056;-48
2024/01/06 14:07:33;;;;;;;7.43;3.10;;;;;;;17.05;56.31;101033.69;10531425;28;20296;-46
2024/01/06 14:12:34;;;;;;;5.18;2.60;;;;;;;17.05;55.57;101031.00;10513290;28;20301;-48
2024/01/06 14:17:35;;;;;;;6.35;3.28;;;;;;;17.01;56.37;101038.81;10529104;28;20048;-51
2024/01/06 14:22:35;;;;;;;5.38;2.97;;;;;;;17.03;56.72;101036.66;10529280;28;20027;-51
2024/01/06 14:27:36;;;;;;;4.80;2.70;;;;;;;17.03;56.16;101051.91;10532243;28;20027;-50
2024/01/06 14:32:37;;;;;;;6.57;3.50;;;;;;;16.98;56.26;101055.44;10512964;28;20365;-47
2024/01/06 14:37:38;;;;;;;5.20;3.28;;;;;;;17.00;55.31;101063.19;10532009;28;20527;-52
2024/01/06 14:42:38;;;;;;;6.50;3.10;;;;;;;16.99;56.82;101073.09;10531693;28;20024;-49
2024/01/06 14:47:40;;;;;;;8.73;3.67;;;;;;;17.09;55.34;101069.59;10531517;28;20024;-49
2024/01/06 14:52:40;;;;;;;5.07;2.83;;;;;;;17.10;55.70;101085.38;10531104;28;20467;-49
2024/01/06 14:57:40;;;;;;;8.03;3.53;;;;;;;17.09;54.66;101091.81;10515116;28;20020;-51
2024/01/06 15:02:41;;;;;;;7.67;3.63;;;;;;;17.10;55.45;101097.97;10510763;28;20274;-49
2024/01/06 15:07:41;;;;;;;5.57;3.27;;;;;;;17.04;55.68;101104.41;10486506;28;20290;-48
2024/01/06 15:12:41;;;;;;;5.93;3.20;;;;;;;17.05;54.88;101111.38;10512022;28;20884;-51
2024/01/06 15:17:42;;;;;;;6.57;3.40;;;;;;;17.09;54.50;101115.13;10531427;28;20312;-50
2024/01/06 15:22:42;;;;;;;6.53;3.53;;;;;;;17.12;53.91;101117.25;10527933;28;20335;-51
2024/01/06 15:27:46;;;;;;;4.87;3.27;;;;;;;17.07;54.99;101123.44;10538348;28;20293;-51
2024/01/06 15:32:47;;;;;;;7.55;3.60;;;;;;;17.07;55.73;101128.00;10528877;28;20352;-54
2024/01/06 15:37:47;;;;;;;10.10;3.83;;;;;;;17.08;56.33;101130.41;10536555;28;20395;-48
2024/01/06 15:42:47;;;;;;;8.03;3.63;;;;;;;17.07;55.71;101136.84;10516829;28;20020;-49
2024/01/06 15:47:48;;;;;;;9.25;4.47;;;;;;;17.09;56.26;101147.28;10529784;28;20987;-51
2024/01/06 15:52:48;;;;;;;8.80;3.73;;;;;;;17.16;56.18;101140.53;10534672;28;20024;-48
2024/01/06 15:57:48;;;;;;;13.23;3.67;;;;;;;17.22;57.07;101152.03;10528172;28;20266;-48
2024/01/06 16:02:49;;;;;;;9.63;3.73;;;;;;;17.21;55.97;101155.81;10534791;28;20282;-52
2024/01/06 16:07:49;;;;;;;9.70;3.53;;;;;;;17.23;55.72;101162.47;10535785;28;20339;-50
2024/01/06 16:12:51;;;;;;;6.90;4.13;;;;;;;17.23;57.24;101172.41;10528947;28;20065;-50
2024/01/06 16:17:51;;;;;;;11.57;3.83;;;;;;;17.27;57.79;101178.00;10510522;28;20271;-49
2024/01/06 16:22:52;;;;;;;9.90;3.40;;;;;;;17.27;56.58;101191.41;10508600;28;20016;-50
2024/01/06 16:27:52;;;;;;;11.63;4.35;;;;;;;17.21;56.80;101193.31;10506477;28;20282;-49
2024/01/06 16:32:52;;;;;;;11.93;4.10;;;;;;;17.25;57.79;101191.69;10511814;28;20396;-49
2024/01/06 16:37:52;;;;;;;8.87;3.33;;;;;;;17.25;57.66;101202.41;10507797;28;20307;-52
2024/01/06 16:42:53;;;;;;;9.00;3.57;;;;;;;17.27;57.92;101212.84;10503523;28;20350;-49
2024/01/06 16:47:53;;;;;;;21.70;9.05;;;;;;;17.35;57.43;101207.72;10514067;28;20285;-51
2024/01/06 16:52:54;;;;;;;36.03;11.33;;;;;;;17.37;59.16;101210.91;10512852;28;20266;-48
2024/01/06 16:57:59;;;;;;;29.45;10.80;;;;;;;17.30;58.80;101213.13;10517390;28;20279;-49
2024/01/06 17:02:59;;;;;;;23.30;10.00;;;;;;;17.22;57.62;101213.69;10513411;28;20020;-50
2024/01/06 17:07:59;;;;;;;24.07;9.77;;;;;;;17.18;57.75;101212.63;10499540;28;20028;-49
2024/01/06 17:13:01;;;;;;;34.57;10.47;;;;;;;17.25;58.98;101221.16;10531539;28;20326;-50
2024/01/06 17:18:01;;;;;;;34.20;11.32;;;;;;;17.44;60.86;101224.03;10531254;28;20270;-52
2024/01/06 17:23:01;;;;;;;24.17;8.43;;;;;;;17.49;61.48;101232.84;10515958;28;20048;-50
2024/01/06 17:28:02;;;;;;;25.43;9.13;;;;;;;17.50;61.09;101239.00;10531051;28;20574;-51
2024/01/06 17:33:03;;;;;;;25.35;8.68;;;;;;;17.44;59.58;101240.13;10527043;28;20324;-49
2024/01/06 17:38:03;;;;;;;20.33;7.43;;;;;;;17.36;58.84;101243.38;10523493;28;20028;-50
2024/01/06 17:43:03;;;;;;;24.30;8.50;;;;;;;17.34;59.26;101246.31;10530197;28;20485;-48
2024/01/06 17:48:05;;;;;;;21.10;7.17;;;;;;;17.25;59.43;101253.31;10530532;28;20024;-48
2024/01/06 17:53:05;;;;;;;24.23;7.50;;;;;;;17.14;60.14;101251.75;10529876;28;20327;-49
2024/01/06 17:58:06;;;;;;;20.10;7.63;;;;;;;17.08;60.84;101274.28;10516946;28;20467;-48
2024/01/06 18:03:06;;;;;;;17.30;6.20;;;;;;;17.05;60.32;101272.13;10529742;28;20100;-51
2024/01/06 18:08:06;;;;;;;18.43;7.03;;;;;;;17.02;59.56;101278.03;10528965;28;20785;-52
2024/01/06 18:13:07;;;;;;;22.03;7.67;;;;;;;17.04;59.20;101283.91;10510419;28;20361;-51
2024/01/06 18:18:07;;;;;;;20.33;6.73;;;;;;;17.02;59.32;101288.75;10530164;28;20278;-48
2024/01/06 18:23:07;;;;;;;18.98;6.68;;;;;;;17.01;58.89;101298.66;10530069;28;20762;-50
2024/01/06 18:28:08;;;;;;;18.50;7.00;;;;;;;16.97;58.78;101283.41;10518819;28;20754;-52
2024/01/06 18:33:08;;;;;;;11.90;5.57;;;;;;;16.95;59.00;101289.84;10533873;28;20286;-50
2024/01/06 18:38:08;;;;;;;17.77;6.15;;;;;;;16.91;59.89;101298.66;10540724;28;20276;-48
2024/01/06 18:43:09;;;;;;;15.40;6.43;;;;;;;16.88;58.96;101297.34;10538570;28;20051;-48
2024/01/06 18:48:09;;;;;;;11.70;5.27;;;;;;;16.88;59.17;101300.03;10535334;28;20850;-47
2024/01/06 18:53:09;;;;;;;15.60;6.10;;;;;;;16.91;59.37;101301.34;10503666;28;20335;-49
2024/01/06 18:58:10;;;;;;;12.30;5.83;;;;;;;16.93;58.78;101312.63;10520754;28;20283;-48
2024/01/06 19:03:11;;;;;;;16.05;6.03;;;;;;;16.91;57.55;101320.91;10502072;28;20278;-51
2024/01/06 19:08:11;;;;;;;9.20;4.83;;;;;;;16.93;57.57;101326.81;10522005;28;20021;-51
2024/01/06 19:13:11;;;;;;;8.50;4.63;;;;;;;16.93;58.29;101336.72;10519240;28;20351;-47
2024/01/06 19:18:12;;;;;;;13.43;5.82;;;;;;;16.91;58.28;101328.94;10530626;28;20313;-48
2024/01/06 19:23:13;;;;;;;11.95;4.88;;;;;;;16.90;57.20;101335.38;10525233;28;20032;-48
2024/01/06 19:28:13;;;;;;;8.30;4.57;;;;;;;16.94;57.65;101341.00;10535651;28;20726;-48
2024/01/06 19:33:13;;;;;;;10.47;5.03;;;;;;;16.93;58.14;101345.56;10519731;28;20499;-50
2024/01/06 19:38:15;;;;;;;14.10;5.30;;;;;;;16.99;57.79;101353.59;10514467;28;20282;-50
2024/01/06 19:43:16;;;;;;;8.73;4.10;;;;;;;16.97;58.22;101355.75;10513389;28;20751;-48
2024/01/06 19:48:16;;;;;;;6.32;4.20;;;;;;;16.97;57.51;101361.09;10517270;28;20023;-53
2024/01/06 19:53:16;;;;;;;7.97;4.50;;;;;;;16.96;57.33;101365.66;10510391;28;20028;-48
2024/01/06 19:58:17;;;;;;;8.18;4.35;;;;;;;16.99;58.00;101367.78;10519669;28;20733;-47
2024/01/06 20:03:17;;;;;;;6.75;5.00;;;;;;;16.99;57.07;101367.00;10512038;28;20375;-51
2024/01/06 20:08:17;;;;;;;12.00;4.15;;;;;;;17.01;58.14;101371.00;10511265;28;20468;-48
2024/01/06 20:13:18;;;;;;;8.43;4.70;;;;;;;17.04;58.21;101370.44;10511285;28;20399;-50
2024/01/06 20:18:18;;;;;;;8.77;4.27;;;;;;;17.08;57.42;101384.13;10513720;28;20623;-48
2024/01/06 20:23:18;;;;;;;6.30;3.80;;;;;;;17.07;58.55;101380.66;10508932;28;20317;-50
2024/01/06 20:28:19;;;;;;;7.87;4.40;;;;;;;17.06;57.74;101372.88;10536437;28;20637;-51
2024/01/06 20:33:20;;;;;;;7.10;4.10;;;;;;;17.10;58.43;101390.03;10535878;28;20273;-49
2024/01/06 20:38:20;;;;;;;6.47;3.85;;;;;;;17.08;56.56;101392.16;10535673;28;20111;-51
2024/01/06 20:43:20;;;;;;;7.90;4.00;;;;;;;17.02;57.46;101398.59;10533196;28;20047;-48
2024/01/06 20:48:21;;;;;;;6.90;2.97;;;;;;;16.99;58.21;101399.94;10517484;28;20282;-49
2024/01/06 20:53:21;;;;;;;5.75;3.38;;;;;;;16.99;56.98;101407.97;10531811;28;20031;-50
2024/01/06 20:58:21;;;;;;;8.20;3.53;;;;;;;17.02;56.95;101414.66;10534349;28;20031;-48
2024/01/06 21:03:22;;;;;;;5.43;4.27;;;;;;;17.02;57.51;101418.16;10534757;28;20772;-49
2024/01/06 21:08:24;;;;;;;6.70;3.23;;;;;;;17.07;57.31;101418.16;10534510;28;20281;-48
2024/01/06 21:13:25;;;;;;;7.20;3.75;;;;;;;17.14;57.45;101423.25;10534296;28;20286;-50
2024/01/06 21:18:25;;;;;;;7.90;3.92;;;;;;;17.15;56.30;101419.47;10534104;28;20375;-48
2024/01/06 21:23:26;;;;;;;9.47;3.90;;;;;;;17.22;56.24;101414.66;10534258;28;20146;-50
2024/01/06 21:28:26;;;;;;;6.38;3.08;;;;;;;17.19;55.64;101412.53;10533692;28;20766;-48
2024/01/06 21:33:26;;;;;;;4.67;2.90;;;;;;;17.20;56.36;101424.84;10515987;28;20606;-50
2024/01/06 21:38:26;;;;;;;6.27;3.40;;;;;;;17.20;56.18;101425.66;10533476;28;20272;-47
2024/01/06 21:43:27;;;;;;;5.50;3.80;;;;;;;17.22;56.50;101428.06;10512894;28;20368;-48
2024/01/06 21:48:30;;;;;;;6.70;3.10;;;;;;;17.20;55.71;101428.34;10532966;28;20335;-51
2024/01/06 21:53:30;;;;;;;5.82;3.13;;;;;;;17.21;55.42;101429.16;10515443;28;20278;-50
2024/01/06 21:58:31;;;;;;;5.60;3.40;;;;;;;17.21;55.53;101429.94;10532752;28;20636;-50
2024/01/06 22:03:31;;;;;;;7.57;3.63;;;;;;;17.20;55.37;101444.41;10533042;28;20490;-50
2024/01/06 22:08:31;;;;;;;4.20;2.57;;;;;;;17.20;56.69;101457.03;10527672;28;20298;-51
2024/01/06 22:13:32;;;;;;;4.80;2.60;;;;;;;17.20;56.32;101462.38;10517034;28;20681;-51
2024/01/06 22:18:33;;;;;;;4.45;2.92;;;;;;;17.16;55.92;101456.72;10532613;28;20044;-48
2024/01/06 22:23:33;;;;;;;4.80;2.80;;;;;;;17.17;55.86;101455.69;10532809;28;20093;-49
2024/01/06 22:28:34;;;;;;;4.95;2.53;;;;;;;17.18;56.67;101461.84;10532317;28;20170;-49
2024/01/06 22:33:34;;;;;;;5.83;2.67;;;;;;;17.16;55.49;101454.03;10532493;28;20570;-49
2024/01/06 22:38:34;;;;;;;5.07;2.50;;;;;;;17.15;55.75;101467.72;10532206;28;20274;-51
2024/01/06 22:43:35;;;;;;;3.65;2.67;;;;;;;17.15;56.93;101465.84;10532231;28;20945;-47
2024/01/06 22:48:35;;;;;;;4.30;2.67;;;;;;;17.18;55.00;101469.88;10532031;28;20337;-48
2024/01/06 22:53:36;;;;;;;4.93;2.77;;;;;;;17.20;55.93;101484.63;10532385;28;20456;-51
2024/01/06 22:58:36;;;;;;;4.13;2.70;;;;;;;17.21;55.63;101490.78;10513451;28;20273;-48